sensor_id;sensor_type;location;lat;lon;timestamp;P1;durP1;ratioP1;P2;durP2;ratioP2
38224;SDS011;24025;48.138;11.428;2024-01-06T00:00:10;8.32;;;3.17;;
38224;SDS011;24025;48.138;11.428;2024-01-06T00:05:14;5.95;;;3.03;;
38224;SDS011;24025;48.138;11.428;2024-01-06T00:07:45;6.20;;;2.97;;
38224;SDS011;24025;48.138;11.428;2024-01-06T00:10:17;4.45;;;2.90;;
38224;SDS011;24025;48.138;11.428;2024-01-06T00:12:49;5.78;;;3.70;;
38224;SDS011;24025;48.138;11.428;2024-01-06T00:15:20;5.60;;;3.83;;
38224;SDS011;24025;48.138;11.428;2024-01-06T00:17:52;3.42;;;3.10;;
38224;SDS011;24025;48.138;11.428;2024-01-06T00:20:24;6.22;;;3.40;;
38224;SDS011;24025;48.138;11.428;2024-01-06T00:22:56;6.90;;;3.43;;
38224;SDS011;24025;48.138;11.428;2024-01-06T00:25:30;6.57;;;3.65;;
38224;SDS011;24025;48.138;11.428;2024-01-06T00:28:01;5.85;;;2.60;;
38224;SDS011;24025;48.138;11.428;2024-01-06T00:30:33;6.63;;;3.08;;
38224;SDS011;24025;48.138;11.428;2024-01-06T00:33:05;7.93;;;3.15;;
38224;SDS011;24025;48.138;11.428;2024-01-06T00:35:36;6.82;;;3.63;;
38224;SDS011;24025;48.138;11.428;2024-01-06T00:38:08;6.22;;;4.03;;
38224;SDS011;24025;48.138;11.428;2024-01-06T00:40:40;4.40;;;3.37;;
38224;SDS011;24025;48.138;11.428;2024-01-06T00:43:11;6.47;;;3.20;;
38224;SDS011;24025;48.138;11.428;2024-01-06T00:45:43;5.27;;;3.70;;
38224;SDS011;24025;48.138;11.428;2024-01-06T00:48:14;6.22;;;4.07;;
38224;SDS011;24025;48.138;11.428;2024-01-06T00:50:46;4.28;;;3.15;;
38224;SDS011;24025;48.138;11.428;2024-01-06T00:53:18;6.47;;;3.43;;
38224;SDS011;24025;48.138;11.428;2024-01-06T00:55:49;4.43;;;3.77;;
38224;SDS011;24025;48.138;11.428;2024-01-06T00:58:21;7.05;;;4.32;;
38224;SDS011;24025;48.138;11.428;2024-01-06T01:00:52;6.78;;;3.40;;
38224;SDS011;24025;48.138;11.428;2024-01-06T01:03:24;5.55;;;4.05;;
38224;SDS011;24025;48.138;11.428;2024-01-06T01:05:56;5.57;;;3.55;;
38224;SDS011;24025;48.138;11.428;2024-01-06T01:08:28;5.47;;;4.13;;
38224;SDS011;24025;48.138;11.428;2024-01-06T01:10:59;6.15;;;4.60;;
38224;SDS011;24025;48.138;11.428;2024-01-06T01:13:31;4.93;;;4.22;;
38224;SDS011;24025;48.138;11.428;2024-01-06T01:16:03;10.20;;;4.82;;
38224;SDS011;24025;48.138;11.428;2024-01-06T01:18:34;5.72;;;4.50;;
38224;SDS011;24025;48.138;11.428;2024-01-06T01:21:06;5.47;;;4.10;;
38224;SDS011;24025;48.138;11.428;2024-01-06T01:23:38;6.40;;;4.18;;
38224;SDS011;24025;48.138;11.428;2024-01-06T01:26:10;8.43;;;4.57;;
38224;SDS011;24025;48.138;11.428;2024-01-06T01:28:41;5.32;;;4.03;;
38224;SDS011;24025;48.138;11.428;2024-01-06T01:31:14;5.03;;;3.38;;
38224;SDS011;24025;48.138;11.428;2024-01-06T01:33:45;5.10;;;3.85;;
38224;SDS011;24025;48.138;11.428;2024-01-06T01:36:17;4.75;;;3.58;;
38224;SDS011;24025;48.138;11.428;2024-01-06T01:38:49;4.60;;;3.10;;
38224;SDS011;24025;48.138;11.428;2024-01-06T01:41:21;6.03;;;3.85;;
38224;SDS011;24025;48.138;11.428;2024-01-06T01:43:53;6.22;;;4.25;;
38224;SDS011;24025;48.138;11.428;2024-01-06T01:46:29;5.80;;;3.78;;
38224;SDS011;24025;48.138;11.428;2024-01-06T01:54:07;6.13;;;4.15;;
38224;SDS011;24025;48.138;11.428;2024-01-06T01:56:39;6.70;;;4.15;;
38224;SDS011;24025;48.138;11.428;2024-01-06T01:59:11;7.63;;;4.65;;
38224;SDS011;24025;48.138;11.428;2024-01-06T02:01:44;7.75;;;5.35;;
38224;SDS011;24025;48.138;11.428;2024-01-06T02:04:16;7.47;;;4.85;;
38224;SDS011;24025;48.138;11.428;2024-01-06T02:06:47;10.80;;;4.67;;
38224;SDS011;24025;48.138;11.428;2024-01-06T02:09:19;6.13;;;4.45;;
38224;SDS011;24025;48.138;11.428;2024-01-06T02:11:51;8.10;;;4.85;;
38224;SDS011;24025;48.138;11.428;2024-01-06T02:14:22;4.83;;;3.67;;
38224;SDS011;24025;48.138;11.428;2024-01-06T02:16:54;5.47;;;4.03;;
38224;SDS011;24025;48.138;11.428;2024-01-06T02:19:25;9.68;;;4.65;;
38224;SDS011;24025;48.138;11.428;2024-01-06T02:21:57;9.63;;;4.57;;
38224;SDS011;24025;48.138;11.428;2024-01-06T02:24:29;5.27;;;4.13;;
38224;SDS011;24025;48.138;11.428;2024-01-06T02:27:00;5.40;;;4.25;;
38224;SDS011;24025;48.138;11.428;2024-01-06T02:29:32;5.80;;;4.28;;
38224;SDS011;24025;48.138;11.428;2024-01-06T02:32:04;7.30;;;4.13;;
38224;SDS011;24025;48.138;11.428;2024-01-06T02:34:36;5.68;;;3.92;;
38224;SDS011;24025;48.138;11.428;2024-01-06T02:37:09;4.53;;;3.10;;
38224;SDS011;24025;48.138;11.428;2024-01-06T02:39:41;4.05;;;2.22;;
38224;SDS011;24025;48.138;11.428;2024-01-06T02:42:13;6.25;;;2.42;;
38224;SDS011;24025;48.138;11.428;2024-01-06T02:44:44;4.55;;;3.13;;
38224;SDS011;24025;48.138;11.428;2024-01-06T02:47:16;3.03;;;2.00;;
38224;SDS011;24025;48.138;11.428;2024-01-06T02:49:47;2.08;;;1.40;;
38224;SDS011;24025;48.138;11.428;2024-01-06T02:52:19;2.00;;;0.80;;
38224;SDS011;24025;48.138;11.428;2024-01-06T02:54:51;0.80;;;0.63;;
38224;SDS011;24025;48.138;11.428;2024-01-06T02:57:23;1.70;;;1.25;;
38224;SDS011;24025;48.138;11.428;2024-01-06T02:59:54;1.23;;;1.05;;
38224;SDS011;24025;48.138;11.428;2024-01-06T03:02:26;0.85;;;0.63;;
38224;SDS011;24025;48.138;11.428;2024-01-06T03:04:57;0.68;;;0.57;;
38224;SDS011;24025;48.138;11.428;2024-01-06T03:07:29;1.00;;;0.70;;
38224;SDS011;24025;48.138;11.428;2024-01-06T03:10:01;1.10;;;0.90;;
38224;SDS011;24025;48.138;11.428;2024-01-06T03:12:33;1.00;;;0.60;;
38224;SDS011;24025;48.138;11.428;2024-01-06T03:15:05;1.88;;;1.35;;
38224;SDS011;24025;48.138;11.428;2024-01-06T03:20:09;1.92;;;1.02;;
38224;SDS011;24025;48.138;11.428;2024-01-06T03:22:41;1.30;;;0.90;;
38224;SDS011;24025;48.138;11.428;2024-01-06T03:25:12;3.05;;;1.00;;
38224;SDS011;24025;48.138;11.428;2024-01-06T03:27:44;0.93;;;0.80;;
38224;SDS011;24025;48.138;11.428;2024-01-06T03:30:16;0.88;;;0.65;;
38224;SDS011;24025;48.138;11.428;2024-01-06T03:32:48;1.13;;;0.88;;
38224;SDS011;24025;48.138;11.428;2024-01-06T03:35:19;1.05;;;0.80;;
38224;SDS011;24025;48.138;11.428;2024-01-06T03:37:51;1.77;;;0.82;;
38224;SDS011;24025;48.138;11.428;2024-01-06T03:40:22;2.25;;;1.20;;
38224;SDS011;24025;48.138;11.428;2024-01-06T03:42:54;1.50;;;0.90;;
38224;SDS011;24025;48.138;11.428;2024-01-06T03:45:26;0.80;;;0.65;;
38224;SDS011;24025;48.138;11.428;2024-01-06T03:47:58;0.70;;;0.57;;
38224;SDS011;24025;48.138;11.428;2024-01-06T03:50:29;1.27;;;1.02;;
38224;SDS011;24025;48.138;11.428;2024-01-06T03:53:04;0.88;;;0.63;;
38224;SDS011;24025;48.138;11.428;2024-01-06T03:55:36;0.93;;;0.60;;
38224;SDS011;24025;48.138;11.428;2024-01-06T03:58:07;1.00;;;0.60;;
38224;SDS011;24025;48.138;11.428;2024-01-06T04:00:39;1.30;;;0.80;;
38224;SDS011;24025;48.138;11.428;2024-01-06T04:03:11;0.90;;;0.65;;
38224;SDS011;24025;48.138;11.428;2024-01-06T04:05:42;2.55;;;1.45;;
38224;SDS011;24025;48.138;11.428;2024-01-06T04:08:14;2.47;;;1.42;;
38224;SDS011;24025;48.138;11.428;2024-01-06T04:10:46;2.25;;;1.08;;
38224;SDS011;24025;48.138;11.428;2024-01-06T04:13:17;2.30;;;1.20;;
38224;SDS011;24025;48.138;11.428;2024-01-06T04:15:49;1.15;;;0.70;;
38224;SDS011;24025;48.138;11.428;2024-01-06T04:18:20;1.02;;;0.65;;
38224;SDS011;24025;48.138;11.428;2024-01-06T04:20:52;1.23;;;0.55;;
38224;SDS011;24025;48.138;11.428;2024-01-06T04:23:24;1.23;;;0.75;;
38224;SDS011;24025;48.138;11.428;2024-01-06T04:25:56;0.90;;;0.50;;
38224;SDS011;24025;48.138;11.428;2024-01-06T04:28:28;0.95;;;0.38;;
38224;SDS011;24025;48.138;11.428;2024-01-06T04:31:00;0.40;;;0.40;;
38224;SDS011;24025;48.138;11.428;2024-01-06T04:33:31;0.73;;;0.50;;
38224;SDS011;24025;48.138;11.428;2024-01-06T04:36:04;0.60;;;0.30;;
38224;SDS011;24025;48.138;11.428;2024-01-06T04:38:36;0.47;;;0.20;;
38224;SDS011;24025;48.138;11.428;2024-01-06T04:41:07;1.02;;;0.55;;
38224;SDS011;24025;48.138;11.428;2024-01-06T04:43:39;0.70;;;0.63;;
38224;SDS011;24025;48.138;11.428;2024-01-06T04:46:11;0.50;;;0.20;;
38224;SDS011;24025;48.138;11.428;2024-01-06T04:48:42;0.52;;;0.30;;
38224;SDS011;24025;48.138;11.428;2024-01-06T04:51:15;0.30;;;0.15;;
38224;SDS011;24025;48.138;11.428;2024-01-06T04:53:47;0.20;;;0.20;;
38224;SDS011;24025;48.138;11.428;2024-01-06T04:56:18;0.30;;;0.17;;
38224;SDS011;24025;48.138;11.428;2024-01-06T04:58:50;0.20;;;0.10;;
38224;SDS011;24025;48.138;11.428;2024-01-06T05:01:21;1.50;;;0.75;;
38224;SDS011;24025;48.138;11.428;2024-01-06T05:03:53;0.20;;;0.20;;
38224;SDS011;24025;48.138;11.428;2024-01-06T05:06:25;0.10;;;0.10;;
38224;SDS011;24025;48.138;11.428;2024-01-06T05:08:56;0.20;;;0.20;;
38224;SDS011;24025;48.138;11.428;2024-01-06T05:11:28;0.37;;;0.17;;
38224;SDS011;24025;48.138;11.428;2024-01-06T05:13:59;0.08;;;0.08;;
38224;SDS011;24025;48.138;11.428;2024-01-06T05:16:31;0.20;;;0.10;;
38224;SDS011;24025;48.138;11.428;2024-01-06T05:19:03;0.00;;;0.00;;
38224;SDS011;24025;48.138;11.428;2024-01-06T05:21:35;0.30;;;0.20;;
38224;SDS011;24025;48.138;11.428;2024-01-06T05:24:06;0.00;;;0.00;;
38224;SDS011;24025;48.138;11.428;2024-01-06T05:26:38;0.32;;;0.20;;
38224;SDS011;24025;48.138;11.428;2024-01-06T05:29:10;0.10;;;0.10;;
38224;SDS011;24025;48.138;11.428;2024-01-06T05:31:41;0.08;;;0.03;;
38224;SDS011;24025;48.138;11.428;2024-01-06T05:34:13;0.13;;;0.10;;
38224;SDS011;24025;48.138;11.428;2024-01-06T05:36:45;0.00;;;0.00;;
38224;SDS011;24025;48.138;11.428;2024-01-06T05:39:17;0.10;;;0.10;;
38224;SDS011;24025;48.138;11.428;2024-01-06T05:41:49;0.40;;;0.10;;
38224;SDS011;24025;48.138;11.428;2024-01-06T05:44:20;0.10;;;0.10;;
38224;SDS011;24025;48.138;11.428;2024-01-06T05:46:52;0.10;;;0.00;;
38224;SDS011;24025;48.138;11.428;2024-01-06T05:49:23;0.05;;;0.05;;
38224;SDS011;24025;48.138;11.428;2024-01-06T05:51:55;0.13;;;0.00;;
38224;SDS011;24025;48.138;11.428;2024-01-06T05:54:27;0.10;;;0.00;;
38224;SDS011;24025;48.138;11.428;2024-01-06T05:56:59;0.22;;;0.00;;
38224;SDS011;24025;48.138;11.428;2024-01-06T05:59:32;0.00;;;0.00;;
38224;SDS011;24025;48.138;11.428;2024-01-06T06:02:04;0.05;;;0.03;;
38224;SDS011;24025;48.138;11.428;2024-01-06T06:04:35;0.00;;;0.00;;
38224;SDS011;24025;48.138;11.428;2024-01-06T06:07:07;0.35;;;0.10;;
38224;SDS011;24025;48.138;11.428;2024-01-06T06:09:39;0.25;;;0.03;;
38224;SDS011;24025;48.138;11.428;2024-01-06T06:12:11;0.20;;;0.10;;
38224;SDS011;24025;48.138;11.428;2024-01-06T06:14:43;0.32;;;0.10;;
38224;SDS011;24025;48.138;11.428;2024-01-06T06:17:15;0.10;;;0.10;;
38224;SDS011;24025;48.138;11.428;2024-01-06T06:19:46;0.87;;;0.20;;
38224;SDS011;24025;48.138;11.428;2024-01-06T06:22:18;0.90;;;0.20;;
38224;SDS011;24025;48.138;11.428;2024-01-06T06:24:50;1.35;;;0.50;;
38224;SDS011;24025;48.138;11.428;2024-01-06T06:27:23;0.82;;;0.40;;
38224;SDS011;24025;48.138;11.428;2024-01-06T06:29:55;0.80;;;0.20;;
38224;SDS011;24025;48.138;11.428;2024-01-06T06:32:27;0.43;;;0.32;;
38224;SDS011;24025;48.138;11.428;2024-01-06T06:34:59;1.77;;;0.50;;
38224;SDS011;24025;48.138;11.428;2024-01-06T06:37:31;1.80;;;0.55;;
38224;SDS011;24025;48.138;11.428;2024-01-06T06:40:03;3.17;;;0.50;;
38224;SDS011;24025;48.138;11.428;2024-01-06T06:42:34;2.55;;;0.50;;
38224;SDS011;24025;48.138;11.428;2024-01-06T06:45:06;1.08;;;0.50;;
38224;SDS011;24025;48.138;11.428;2024-01-06T06:47:38;4.07;;;0.73;;
38224;SDS011;24025;48.138;11.428;2024-01-06T06:50:10;2.13;;;0.70;;
38224;SDS011;24025;48.138;11.428;2024-01-06T06:52:42;2.60;;;0.40;;
38224;SDS011;24025;48.138;11.428;2024-01-06T06:55:14;3.53;;;1.00;;
38224;SDS011;24025;48.138;11.428;2024-01-06T06:57:45;3.43;;;1.00;;
38224;SDS011;24025;48.138;11.428;2024-01-06T07:00:17;4.07;;;0.68;;
38224;SDS011;24025;48.138;11.428;2024-01-06T07:02:49;2.22;;;0.68;;
38224;SDS011;24025;48.138;11.428;2024-01-06T07:05:21;3.15;;;0.95;;
38224;SDS011;24025;48.138;11.428;2024-01-06T07:07:52;2.65;;;0.50;;
38224;SDS011;24025;48.138;11.428;2024-01-06T07:10:24;1.67;;;0.87;;
38224;SDS011;24025;48.138;11.428;2024-01-06T07:12:55;0.68;;;0.40;;
38224;SDS011;24025;48.138;11.428;2024-01-06T07:15:27;1.00;;;0.65;;
38224;SDS011;24025;48.138;11.428;2024-01-06T07:17:59;3.65;;;0.80;;
38224;SDS011;24025;48.138;11.428;2024-01-06T07:20:31;2.15;;;0.65;;
38224;SDS011;24025;48.138;11.428;2024-01-06T07:23:02;2.70;;;0.57;;
38224;SDS011;24025;48.138;11.428;2024-01-06T07:25:34;3.47;;;0.85;;
38224;SDS011;24025;48.138;11.428;2024-01-06T07:28:06;1.20;;;0.60;;
38224;SDS011;24025;48.138;11.428;2024-01-06T07:30:39;1.65;;;0.60;;
38224;SDS011;24025;48.138;11.428;2024-01-06T07:33:11;2.60;;;0.80;;
38224;SDS011;24025;48.138;11.428;2024-01-06T07:35:43;5.40;;;0.90;;
38224;SDS011;24025;48.138;11.428;2024-01-06T07:38:14;4.85;;;0.90;;
38224;SDS011;24025;48.138;11.428;2024-01-06T07:40:46;2.08;;;0.50;;
38224;SDS011;24025;48.138;11.428;2024-01-06T07:43:17;1.90;;;0.73;;
38224;SDS011;24025;48.138;11.428;2024-01-06T07:45:49;2.73;;;0.97;;
38224;SDS011;24025;48.138;11.428;2024-01-06T07:48:22;4.47;;;0.82;;
38224;SDS011;24025;48.138;11.428;2024-01-06T07:50:54;2.50;;;0.50;;
38224;SDS011;24025;48.138;11.428;2024-01-06T07:53:25;3.08;;;0.68;;
38224;SDS011;24025;48.138;11.428;2024-01-06T07:55:57;2.20;;;0.55;;
38224;SDS011;24025;48.138;11.428;2024-01-06T07:58:29;4.63;;;1.00;;
38224;SDS011;24025;48.138;11.428;2024-01-06T08:01:00;1.77;;;0.60;;
38224;SDS011;24025;48.138;11.428;2024-01-06T08:03:33;4.13;;;0.88;;
38224;SDS011;24025;48.138;11.428;2024-01-06T08:06:04;1.13;;;0.70;;
38224;SDS011;24025;48.138;11.428;2024-01-06T08:08:37;2.05;;;0.95;;
38224;SDS011;24025;48.138;11.428;2024-01-06T08:11:08;3.13;;;1.13;;
38224;SDS011;24025;48.138;11.428;2024-01-06T08:13:40;1.77;;;0.80;;
38224;SDS011;24025;48.138;11.428;2024-01-06T08:16:12;3.40;;;1.17;;
38224;SDS011;24025;48.138;11.428;2024-01-06T08:18:44;3.78;;;1.17;;
38224;SDS011;24025;48.138;11.428;2024-01-06T08:21:16;4.07;;;1.00;;
38224;SDS011;24025;48.138;11.428;2024-01-06T08:23:48;2.05;;;1.58;;
38224;SDS011;24025;48.138;11.428;2024-01-06T08:26:20;4.47;;;0.80;;
38224;SDS011;24025;48.138;11.428;2024-01-06T08:28:51;5.47;;;1.27;;
38224;SDS011;24025;48.138;11.428;2024-01-06T08:31:23;2.13;;;1.10;;
38224;SDS011;24025;48.138;11.428;2024-01-06T08:33:55;4.38;;;1.30;;
38224;SDS011;24025;48.138;11.428;2024-01-06T08:36:27;1.77;;;0.88;;
38224;SDS011;24025;48.138;11.428;2024-01-06T08:38:58;1.73;;;0.85;;
38224;SDS011;24025;48.138;11.428;2024-01-06T08:41:30;2.28;;;0.75;;
38224;SDS011;24025;48.138;11.428;2024-01-06T08:44:02;3.78;;;0.80;;
38224;SDS011;24025;48.138;11.428;2024-01-06T08:46:33;3.08;;;0.93;;
38224;SDS011;24025;48.138;11.428;2024-01-06T08:49:05;2.13;;;1.00;;
38224;SDS011;24025;48.138;11.428;2024-01-06T08:51:37;5.07;;;0.95;;
38224;SDS011;24025;48.138;11.428;2024-01-06T08:54:08;7.45;;;1.30;;
38224;SDS011;24025;48.138;11.428;2024-01-06T08:56:40;2.15;;;1.08;;
38224;SDS011;24025;48.138;11.428;2024-01-06T08:59:12;2.85;;;1.13;;
38224;SDS011;24025;48.138;11.428;2024-01-06T09:01:44;0.82;;;0.70;;
38224;SDS011;24025;48.138;11.428;2024-01-06T09:04:18;1.55;;;0.70;;
38224;SDS011;24025;48.138;11.428;2024-01-06T09:06:50;2.50;;;0.85;;
38224;SDS011;24025;48.138;11.428;2024-01-06T09:09:22;3.92;;;1.40;;
38224;SDS011;24025;48.138;11.428;2024-01-06T09:11:54;2.53;;;1.13;;
38224;SDS011;24025;48.138;11.428;2024-01-06T09:14:26;5.40;;;1.00;;
38224;SDS011;24025;48.138;11.428;2024-01-06T09:16:58;4.00;;;0.97;;
38224;SDS011;24025;48.138;11.428;2024-01-06T09:19:29;1.77;;;0.77;;
38224;SDS011;24025;48.138;11.428;2024-01-06T09:22:02;0.70;;;0.47;;
38224;SDS011;24025;48.138;11.428;2024-01-06T09:24:34;0.93;;;0.75;;
38224;SDS011;24025;48.138;11.428;2024-01-06T09:27:05;5.88;;;0.95;;
38224;SDS011;24025;48.138;11.428;2024-01-06T09:29:37;1.95;;;1.13;;
38224;SDS011;24025;48.138;11.428;2024-01-06T09:34:41;2.28;;;0.60;;
38224;SDS011;24025;48.138;11.428;2024-01-06T09:37:12;6.20;;;1.35;;
38224;SDS011;24025;48.138;11.428;2024-01-06T09:39:45;2.65;;;1.35;;
38224;SDS011;24025;48.138;11.428;2024-01-06T09:42:16;3.15;;;1.23;;
38224;SDS011;24025;48.138;11.428;2024-01-06T09:44:48;5.03;;;1.38;;
38224;SDS011;24025;48.138;11.428;2024-01-06T09:47:20;4.10;;;1.10;;
38224;SDS011;24025;48.138;11.428;2024-01-06T09:49:53;2.80;;;1.35;;
38224;SDS011;24025;48.138;11.428;2024-01-06T09:52:27;3.40;;;1.60;;
38224;SDS011;24025;48.138;11.428;2024-01-06T09:55:03;2.45;;;1.45;;
38224;SDS011;24025;48.138;11.428;2024-01-06T09:57:37;1.17;;;0.90;;
38224;SDS011;24025;48.138;11.428;2024-01-06T10:00:09;2.72;;;0.95;;
38224;SDS011;24025;48.138;11.428;2024-01-06T10:02:42;2.72;;;1.23;;
38224;SDS011;24025;48.138;11.428;2024-01-06T10:05:15;2.80;;;0.80;;
38224;SDS011;24025;48.138;11.428;2024-01-06T10:07:48;5.03;;;1.17;;
38224;SDS011;24025;48.138;11.428;2024-01-06T10:10:20;1.40;;;0.68;;
38224;SDS011;24025;48.138;11.428;2024-01-06T10:12:53;4.55;;;0.95;;
38224;SDS011;24025;48.138;11.428;2024-01-06T10:15:26;5.30;;;0.93;;
38224;SDS011;24025;48.138;11.428;2024-01-06T10:17:58;5.63;;;1.25;;
38224;SDS011;24025;48.138;11.428;2024-01-06T10:20:30;4.10;;;1.25;;
38224;SDS011;24025;48.138;11.428;2024-01-06T10:23:07;2.67;;;1.20;;
38224;SDS011;24025;48.138;11.428;2024-01-06T10:25:38;4.25;;;1.30;;
38224;SDS011;24025;48.138;11.428;2024-01-06T10:28:11;2.95;;;1.20;;
38224;SDS011;24025;48.138;11.428;2024-01-06T10:30:46;3.72;;;1.45;;
38224;SDS011;24025;48.138;11.428;2024-01-06T10:33:17;2.97;;;1.40;;
38224;SDS011;24025;48.138;11.428;2024-01-06T10:35:50;2.40;;;1.38;;
38224;SDS011;24025;48.138;11.428;2024-01-06T10:38:28;3.25;;;1.73;;
38224;SDS011;24025;48.138;11.428;2024-01-06T10:41:04;3.45;;;1.55;;
38224;SDS011;24025;48.138;11.428;2024-01-06T10:43:39;8.88;;;2.13;;
38224;SDS011;24025;48.138;11.428;2024-01-06T10:46:14;6.47;;;2.15;;
38224;SDS011;24025;48.138;11.428;2024-01-06T10:48:47;1.77;;;1.17;;
38224;SDS011;24025;48.138;11.428;2024-01-06T10:51:20;3.42;;;1.20;;
38224;SDS011;24025;48.138;11.428;2024-01-06T10:53:54;2.83;;;1.50;;
38224;SDS011;24025;48.138;11.428;2024-01-06T10:56:29;2.22;;;1.33;;
38224;SDS011;24025;48.138;11.428;2024-01-06T10:59:01;4.35;;;1.30;;
38224;SDS011;24025;48.138;11.428;2024-01-06T11:01:35;4.07;;;1.67;;
38224;SDS011;24025;48.138;11.428;2024-01-06T11:04:07;3.80;;;1.70;;
38224;SDS011;24025;48.138;11.428;2024-01-06T11:06:40;5.90;;;1.50;;
38224;SDS011;24025;48.138;11.428;2024-01-06T11:09:14;4.97;;;1.92;;
38224;SDS011;24025;48.138;11.428;2024-01-06T11:11:51;8.23;;;2.63;;
38224;SDS011;24025;48.138;11.428;2024-01-06T11:14:25;1.50;;;1.20;;
38224;SDS011;24025;48.138;11.428;2024-01-06T11:16:59;7.78;;;2.03;;
38224;SDS011;24025;48.138;11.428;2024-01-06T11:24:51;3.67;;;1.83;;
38224;SDS011;24025;48.138;11.428;2024-01-06T11:27:26;3.97;;;1.67;;
38224;SDS011;24025;48.138;11.428;2024-01-06T11:30:02;2.35;;;1.30;;
38224;SDS011;24025;48.138;11.428;2024-01-06T11:32:39;3.35;;;1.77;;
38224;SDS011;24025;48.138;11.428;2024-01-06T11:35:13;4.18;;;1.80;;
38224;SDS011;24025;48.138;11.428;2024-01-06T11:43:11;4.72;;;1.70;;
38224;SDS011;24025;48.138;11.428;2024-01-06T11:45:43;5.38;;;2.88;;
38224;SDS011;24025;48.138;11.428;2024-01-06T11:48:15;6.35;;;2.13;;
38224;SDS011;24025;48.138;11.428;2024-01-06T11:50:48;5.07;;;1.95;;
38224;SDS011;24025;48.138;11.428;2024-01-06T11:53:21;7.60;;;2.65;;
38224;SDS011;24025;48.138;11.428;2024-01-06T11:55:53;3.05;;;1.73;;
38224;SDS011;24025;48.138;11.428;2024-01-06T11:58:25;6.47;;;2.35;;
38224;SDS011;24025;48.138;11.428;2024-01-06T12:00:56;6.70;;;3.13;;
38224;SDS011;24025;48.138;11.428;2024-01-06T12:03:29;4.35;;;1.95;;
38224;SDS011;24025;48.138;11.428;2024-01-06T12:06:02;2.92;;;2.08;;
38224;SDS011;24025;48.138;11.428;2024-01-06T12:08:34;4.43;;;1.95;;
38224;SDS011;24025;48.138;11.428;2024-01-06T12:11:07;2.50;;;1.42;;
38224;SDS011;24025;48.138;11.428;2024-01-06T12:13:39;4.60;;;2.50;;
38224;SDS011;24025;48.138;11.428;2024-01-06T12:16:10;2.80;;;1.87;;
38224;SDS011;24025;48.138;11.428;2024-01-06T12:18:42;3.25;;;1.85;;
38224;SDS011;24025;48.138;11.428;2024-01-06T12:21:14;2.45;;;1.88;;
38224;SDS011;24025;48.138;11.428;2024-01-06T12:23:46;3.40;;;1.88;;
38224;SDS011;24025;48.138;11.428;2024-01-06T12:26:18;5.55;;;2.30;;
38224;SDS011;24025;48.138;11.428;2024-01-06T12:28:50;7.03;;;1.70;;
38224;SDS011;24025;48.138;11.428;2024-01-06T12:31:22;7.80;;;1.77;;
38224;SDS011;24025;48.138;11.428;2024-01-06T12:33:55;6.53;;;2.08;;
38224;SDS011;24025;48.138;11.428;2024-01-06T12:36:27;6.03;;;2.00;;
38224;SDS011;24025;48.138;11.428;2024-01-06T12:38:58;9.77;;;2.30;;
38224;SDS011;24025;48.138;11.428;2024-01-06T12:41:30;9.13;;;2.30;;
38224;SDS011;24025;48.138;11.428;2024-01-06T12:44:04;5.03;;;2.10;;
38224;SDS011;24025;48.138;11.428;2024-01-06T12:46:36;4.93;;;1.80;;
38224;SDS011;24025;48.138;11.428;2024-01-06T12:49:08;4.65;;;2.50;;
38224;SDS011;24025;48.138;11.428;2024-01-06T12:51:40;5.68;;;2.28;;
38224;SDS011;24025;48.138;11.428;2024-01-06T12:54:12;6.38;;;2.55;;
38224;SDS011;24025;48.138;11.428;2024-01-06T12:56:44;3.05;;;2.22;;
38224;SDS011;24025;48.138;11.428;2024-01-06T12:59:17;3.67;;;2.45;;
38224;SDS011;24025;48.138;11.428;2024-01-06T13:01:50;3.00;;;2.20;;
38224;SDS011;24025;48.138;11.428;2024-01-06T13:04:21;8.65;;;2.45;;
38224;SDS011;24025;48.138;11.428;2024-01-06T13:06:53;3.63;;;2.08;;
38224;SDS011;24025;48.138;11.428;2024-01-06T13:09:25;4.55;;;2.08;;
38224;SDS011;24025;48.138;11.428;2024-01-06T13:11:57;2.75;;;1.70;;
38224;SDS011;24025;48.138;11.428;2024-01-06T13:14:31;2.60;;;1.50;;
38224;SDS011;24025;48.138;11.428;2024-01-06T13:17:03;5.07;;;1.48;;
38224;SDS011;24025;48.138;11.428;2024-01-06T13:19:36;5.65;;;1.95;;
38224;SDS011;24025;48.138;11.428;2024-01-06T13:22:08;4.30;;;1.90;;
38224;SDS011;24025;48.138;11.428;2024-01-06T13:24:40;3.55;;;2.08;;
38224;SDS011;24025;48.138;11.428;2024-01-06T13:27:12;3.90;;;1.67;;
38224;SDS011;24025;48.138;11.428;2024-01-06T13:29:44;3.95;;;2.05;;
38224;SDS011;24025;48.138;11.428;2024-01-06T13:32:15;5.10;;;1.73;;
38224;SDS011;24025;48.138;11.428;2024-01-06T13:34:47;5.70;;;2.58;;
38224;SDS011;24025;48.138;11.428;2024-01-06T13:37:19;3.22;;;2.17;;
38224;SDS011;24025;48.138;11.428;2024-01-06T13:39:52;5.72;;;2.20;;
38224;SDS011;24025;48.138;11.428;2024-01-06T13:42:24;5.93;;;1.83;;
38224;SDS011;24025;48.138;11.428;2024-01-06T13:44:56;2.90;;;1.85;;
38224;SDS011;24025;48.138;11.428;2024-01-06T13:47:31;3.40;;;2.25;;
38224;SDS011;24025;48.138;11.428;2024-01-06T13:50:03;4.65;;;1.85;;
38224;SDS011;24025;48.138;11.428;2024-01-06T13:52:35;7.60;;;1.88;;
38224;SDS011;24025;48.138;11.428;2024-01-06T13:55:07;3.55;;;1.88;;
38224;SDS011;24025;48.138;11.428;2024-01-06T13:57:42;5.30;;;1.90;;
38224;SDS011;24025;48.138;11.428;2024-01-06T14:00:14;3.88;;;1.83;;
38224;SDS011;24025;48.138;11.428;2024-01-06T14:02:51;4.60;;;2.40;;
38224;SDS011;24025;48.138;11.428;2024-01-06T14:05:25;7.40;;;2.13;;
38224;SDS011;24025;48.138;11.428;2024-01-06T14:07:57;3.35;;;2.08;;
38224;SDS011;24025;48.138;11.428;2024-01-06T14:10:28;6.10;;;2.10;;
38224;SDS011;24025;48.138;11.428;2024-01-06T14:13:02;7.65;;;1.80;;
38224;SDS011;24025;48.138;11.428;2024-01-06T14:15:34;4.10;;;1.88;;
38224;SDS011;24025;48.138;11.428;2024-01-06T14:18:07;4.68;;;2.35;;
38224;SDS011;24025;48.138;11.428;2024-01-06T14:20:42;4.13;;;2.28;;
38224;SDS011;24025;48.138;11.428;2024-01-06T14:23:14;7.13;;;2.65;;
38224;SDS011;24025;48.138;11.428;2024-01-06T14:28:18;3.85;;;1.88;;
38224;SDS011;24025;48.138;11.428;2024-01-06T14:30:49;9.45;;;2.03;;
38224;SDS011;24025;48.138;11.428;2024-01-06T14:33:22;3.70;;;2.10;;
38224;SDS011;24025;48.138;11.428;2024-01-06T14:35:54;5.30;;;2.53;;
38224;SDS011;24025;48.138;11.428;2024-01-06T14:38:26;6.57;;;2.47;;
38224;SDS011;24025;48.138;11.428;2024-01-06T14:40:57;7.15;;;2.38;;
38224;SDS011;24025;48.138;11.428;2024-01-06T14:43:29;3.15;;;2.03;;
38224;SDS011;24025;48.138;11.428;2024-01-06T14:46:01;6.53;;;1.83;;
38224;SDS011;24025;48.138;11.428;2024-01-06T14:48:34;4.13;;;2.15;;
38224;SDS011;24025;48.138;11.428;2024-01-06T14:51:05;3.28;;;1.85;;
38224;SDS011;24025;48.138;11.428;2024-01-06T14:53:37;4.32;;;1.90;;
38224;SDS011;24025;48.138;11.428;2024-01-06T14:56:09;7.00;;;1.50;;
38224;SDS011;24025;48.138;11.428;2024-01-06T14:58:41;6.20;;;2.05;;
38224;SDS011;24025;48.138;11.428;2024-01-06T15:01:12;1.85;;;1.55;;
38224;SDS011;24025;48.138;11.428;2024-01-06T15:03:44;8.80;;;2.05;;
38224;SDS011;24025;48.138;11.428;2024-01-06T15:06:18;2.28;;;1.88;;
38224;SDS011;24025;48.138;11.428;2024-01-06T15:08:50;3.95;;;2.17;;
38224;SDS011;24025;48.138;11.428;2024-01-06T15:11:21;3.00;;;2.58;;
38224;SDS011;24025;48.138;11.428;2024-01-06T15:13:53;5.18;;;2.55;;
38224;SDS011;24025;48.138;11.428;2024-01-06T15:16:26;4.43;;;2.03;;
38224;SDS011;24025;48.138;11.428;2024-01-06T15:18:57;3.65;;;1.92;;
38224;SDS011;24025;48.138;11.428;2024-01-06T15:21:30;2.13;;;1.75;;
38224;SDS011;24025;48.138;11.428;2024-01-06T15:24:05;2.58;;;1.55;;
38224;SDS011;24025;48.138;11.428;2024-01-06T15:26:37;3.97;;;1.85;;